Map

Track Data

SID SEASON NUMBER BASIN SUBBASIN NAME ISO_TIME NATURE LAT LON WMO_WIND WMO_PRES WMO_AGENCY TRACK_TYPE DIST2LAND LANDFALL IFLAG USA_AGENCY USA_ATCF_ID USA_LAT USA_LON USA_RECORD USA_STATUS USA_WIND USA_PRES USA_SSHS USA_R34_NE USA_R34_SE USA_R34_SW USA_R34_NW USA_R50_NE USA_R50_SE USA_R50_SW USA_R50_NW USA_R64_NE USA_R64_SE USA_R64_SW USA_R64_NW USA_POCI USA_ROCI USA_RMW USA_EYE TOKYO_LAT TOKYO_LON TOKYO_GRADE TOKYO_WIND TOKYO_PRES TOKYO_R50_DIR TOKYO_R50_LONG TOKYO_R50_SHORT TOKYO_R30_DIR TOKYO_R30_LONG TOKYO_R30_SHORT TOKYO_LAND CMA_LAT CMA_LON CMA_CAT CMA_WIND CMA_PRES HKO_LAT HKO_LON HKO_CAT HKO_WIND HKO_PRES NEWDELHI_LAT NEWDELHI_LON NEWDELHI_GRADE NEWDELHI_WIND NEWDELHI_PRES NEWDELHI_CI NEWDELHI_DP NEWDELHI_POCI REUNION_LAT REUNION_LON REUNION_TYPE REUNION_WIND REUNION_PRES REUNION_TNUM REUNION_CI REUNION_RMW REUNION_R34_NE REUNION_R34_SE REUNION_R34_SW REUNION_R34_NW REUNION_R50_NE REUNION_R50_SE REUNION_R50_SW REUNION_R50_NW REUNION_R64_NE REUNION_R64_SE REUNION_R64_SW REUNION_R64_NW BOM_LAT BOM_LON BOM_TYPE BOM_WIND BOM_PRES BOM_TNUM BOM_CI BOM_RMW BOM_R34_NE BOM_R34_SE BOM_R34_SW BOM_R34_NW BOM_R50_NE BOM_R50_SE BOM_R50_SW BOM_R50_NW BOM_R64_NE BOM_R64_SE BOM_R64_SW BOM_R64_NW BOM_ROCI BOM_POCI BOM_EYE BOM_POS_METHOD BOM_PRES_METHOD NADI_LAT NADI_LON NADI_CAT NADI_WIND NADI_PRES WELLINGTON_LAT WELLINGTON_LON WELLINGTON_WIND WELLINGTON_PRES DS824_LAT DS824_LON DS824_STAGE DS824_WIND DS824_PRES TD9636_LAT TD9636_LON TD9636_STAGE TD9636_WIND TD9636_PRES TD9635_LAT TD9635_LON TD9635_WIND TD9635_PRES TD9635_ROCI NEUMANN_LAT NEUMANN_LON NEUMANN_CLASS NEUMANN_WIND NEUMANN_PRES MLC_LAT MLC_LON MLC_CLASS MLC_WIND MLC_PRES USA_GUST BOM_GUST BOM_GUST_PER REUNION_GUST REUNION_GUST_PER USA_SEAHGT USA_SEARAD_NE USA_SEARAD_SE USA_SEARAD_SW USA_SEARAD_NW STORM_SPEED STORM_DIR
1967245N21090 1967 87 NI BB NOT_NAMED 1967-09-01 18:00:00 TS 21.3000 90.0000 main 56 56 O________O____ jtwc_io IO081967 21.3000 90.0000 -1 21.3000 90.0000 TC 1 253
1967245N21090 1967 87 NI BB NOT_NAMED 1967-09-01 21:00:00 TS 21.2800 89.9325 main 56 55 P________P____ IO081967 21.2800 89.9325 -1 21.2800 89.9325 TC 2 270
1967245N21090 1967 87 NI BB NOT_NAMED 1967-09-02 00:00:00 TS 21.3000 89.8000 main 55 39 O________O____ jtwc_io IO081967 21.3000 89.8000 -1 21.3000 89.8000 TC 25 4 287
1967245N21090 1967 87 NI BB NOT_NAMED 1967-09-02 03:00:00 TS 21.3866 89.5578 main 39 15 P________PO___ IO081967 21.3849 89.5525 -1 21.3849 89.5525 TC 25 21.4000 89.6000 1 6 289
1967245N21090 1967 87 NI BB NOT_NAMED 1967-09-02 06:00:00 TS 21.4998 89.1765 main 15 0 O________OP___ jtwc_io IO081967 21.5000 89.2000 -1 21.5000 89.2000 TC 25 21.4988 89.0823 1 8 285
1967245N21090 1967 87 NI BB NOT_NAMED 1967-09-02 09:00:00 TS 21.5994 88.7095 main 11 0 P________PP___ IO081967 21.6002 88.7500 -1 21.6002 88.7500 TC 25 21.5972 88.6013 1 9 283
1967245N21090 1967 87 NI BB NOT_NAMED 1967-09-02 12:00:00 TS 21.6990 88.2649 main 0 0 O________OP___ jtwc_io IO081967 21.7000 88.3000 -1 21.7000 88.3000 TC 25 21.6970 88.1946 1 8 285
1967245N21090 1967 87 NI BB NOT_NAMED 1967-09-02 15:00:00 TS 21.7950 87.9217 main 0 0 P________PO___ IO081967 21.7925 87.9325 -1 21.7925 87.9325 TC 25 21.8000 87.9000 1 6 292
1967245N21090 1967 87 NI BB NOT_NAMED 1967-09-02 18:00:00 TS 21.9034 87.7121 main 0 0 O________OP___ jtwc_io IO081967 21.9000 87.7000 -1 21.9000 87.7000 TC 25 21.9102 87.7364 1 3 317
1967245N21090 1967 87 NI BB NOT_NAMED 1967-09-02 21:00:00 TS 22.0310 87.6875 main 0 0 P________PP___ IO081967 22.0273 87.7071 -1 22.0273 87.7071 TC 25 22.0385 87.6483 1 3 349
1967245N21090 1967 87 NI BB NOT_NAMED 1967-09-03 00:00:00 TS 22.1992 87.6537 main 0 0 O________OP___ jtwc_io IO081967 22.2000 87.7000 -1 22.2000 87.7000 TC 25 22.1976 87.5611 1 5 326
1967245N21090 1967 87 NI BB NOT_NAMED 1967-09-03 03:00:00 TS 22.4184 87.4117 main 0 0 P________PO___ IO081967 22.4275 87.4175 -1 22.4275 87.4175 TC 25 22.4000 87.4000 1 8 310
1967245N21090 1967 87 NI BB NOT_NAMED 1967-09-03 06:00:00 TS 22.6898 87.0220 main 0 0 O________OP___ jtwc_io IO081967 22.7000 87.0000 -1 22.7000 87.0000 TC 25 22.6695 87.0661 1 10 307
1967245N21090 1967 87 NI BB NOT_NAMED 1967-09-03 09:00:00 TS 22.9877 86.5879 main 0 0 P________PP___ IO081967 22.9926 86.5575 -1 22.9926 86.5575 TC 25 22.9780 86.6486 1 10 306
1967245N21090 1967 87 NI BB NOT_NAMED 1967-09-03 12:00:00 TS 23.2992 86.1272 main 0 0 O________OP___ jtwc_io IO081967 23.3000 86.1000 -1 23.3000 86.1000 TC 25 23.2975 86.1816 1 10 307
1967245N21090 1967 87 NI BB NOT_NAMED 1967-09-03 15:00:00 TS 23.6098 85.6999 main 0 0 P________PO___ IO081967 23.6148 85.6999 -1 23.6148 85.6999 TC 25 23.6000 85.7000 1 10 308
1967245N21090 1967 87 NI BB NOT_NAMED 1967-09-03 18:00:00 TS 23.8901 85.2897 main 0 0 O________OP___ jtwc_io IO081967 23.9000 85.3000 -1 23.9000 85.3000 TC 25 23.8704 85.2691 1 9 303
1967245N21090 1967 87 NI BB NOT_NAMED 1967-09-03 21:00:00 TS 24.1205 84.8532 main 0 0 P________PP___ IO081967 24.1224 84.8648 -1 24.1224 84.8648 TC 25 24.1167 84.8298 1 9 297
1967245N21090 1967 87 NI BB NOT_NAMED 1967-09-04 00:00:00 TS 24.3099 84.3919 main 0 0 O________OP___ jtwc_io IO081967 24.3000 84.4000 -1 24.3000 84.4000 TC 25 24.3296 84.3756 1 9 293
1967245N21090 1967 87 NI BB NOT_NAMED 1967-09-04 03:00:00 TS 24.4816 83.9050 main 0 0 P________PO___ IO081967 24.4724 83.9075 -1 24.4724 83.9075 TC 25 24.5000 83.9000 1 9 288
1967245N21090 1967 87 NI BB NOT_NAMED 1967-09-04 06:00:00 TS 24.6032 83.4025 main 0 0 O________OP___ jtwc_io IO081967 24.6000 83.4000 -1 24.6000 83.4000 TC 25 24.6095 83.4075 1 9 281
1967245N21090 1967 87 NI BB NOT_NAMED 1967-09-04 09:00:00 TS 24.6645 82.9075 main 0 0 P________PP___ IO081967 24.6572 82.9147 -1 24.6572 82.9147 TC 25 24.6792 82.8933 1 9 277
1967245N21090 1967 87 NI BB NOT_NAMED 1967-09-04 12:00:00 TS 24.7114 82.3858 main 0 0 O________OP___ jtwc_io IO081967 24.7000 82.4000 -1 24.7000 82.4000 TC 25 24.7343 82.3575 1 10 277
1967245N21090 1967 87 NI BB NOT_NAMED 1967-09-04 15:00:00 TS 24.7900 81.8099 main 0 0 P________PO___ IO081967 24.7849 81.8149 -1 24.7849 81.8149 TC 25 24.8000 81.8000 1 11 280
1967245N21090 1967 87 NI BB NOT_NAMED 1967-09-04 18:00:00 TS 24.9075 81.2073 main 0 0 O________OP___ jtwc_io IO081967 24.9000 81.2000 -1 24.9000 81.2000 TC 25 24.9225 81.2220 1 11 284
1967245N21090 1967 87 NI BB NOT_NAMED 1967-09-04 21:00:00 TS 25.0522 80.6078 main 0 0 P________PP___ IO081967 25.0498 80.6001 -1 25.0498 80.6001 TC 25 25.0571 80.6232 1 11 285
1967245N21090 1967 87 NI BB NOT_NAMED 1967-09-05 00:00:00 TS 25.1960 80.0042 main 0 0 O________OP___ jtwc_io IO081967 25.2000 80.0000 -1 25.2000 80.0000 TC 25 25.1880 80.0126 1 11 283
1967245N21090 1967 87 NI BB NOT_NAMED 1967-09-05 03:00:00 TS 25.3098 79.3999 main 0 0 P________PO___ IO081967 25.3148 79.3999 -1 25.3148 79.3999 TC 25 25.3000 79.4000 1 11 280
1967245N21090 1967 87 NI BB NOT_NAMED 1967-09-05 06:00:00 TS 25.3920 78.7863 main 0 0 O________OP___ jtwc_io IO081967 25.4000 78.8000 -1 25.4000 78.8000 TC 25 25.3759 78.7590 1 11 277
1967245N21090 1967 87 NI BB NOT_NAMED 1967-09-05 09:00:00 TS 25.4534 78.1698 main 0 0 P________PP___ IO081967 25.4648 78.1925 -1 25.4648 78.1925 TC 25 25.4306 78.1246 1 11 275
1967245N21090 1967 87 NI AS NOT_NAMED 1967-09-05 12:00:00 TS 25.4899 77.5760 main 0 0 O________OP___ jtwc_io IO081967 25.5000 77.6000 -1 25.5000 77.6000 TC 25 25.4698 77.5279 1 11 273
1967245N21090 1967 87 NI AS NOT_NAMED 1967-09-05 15:00:00 TS 25.5000 77.0032 main 0 0 P________PO___ IO081967 25.5001 77.0048 -1 25.5001 77.0048 TC 25 25.5000 77.0000 1 10 271
1967245N21090 1967 87 NI AS NOT_NAMED 1967-09-05 18:00:00 TS 25.5063 76.5205 main 0 0 O________OP___ jtwc_io IO081967 25.5000 76.5000 -1 25.5000 76.5000 TC 25 25.5189 76.5615 1 8 273
1967245N21090 1967 87 NI AS NOT_NAMED 1967-09-05 21:00:00 TS 25.5393 76.1732 main 0 0 P________PP___ IO081967 25.5421 76.1625 -1 25.5421 76.1625 TC 25 25.5337 76.1945 1 6 278
1967245N21090 1967 87 NI AS NOT_NAMED 1967-09-06 00:00:00 TS 25.5856 75.8934 main 0 0 O________OP___ jtwc_io IO081967 25.6000 75.9000 -1 25.6000 75.9000 TC 25 25.5567 75.8803 1 5 280
1967245N21090 1967 87 NI AS NOT_NAMED 1967-09-06 03:00:00 TS 25.6283 75.5950 main 0 0 P________PO___ IO081967 25.6425 75.5924 -1 25.6425 75.5924 TC 25 25.6000 75.6000 1 5 281
1967245N21090 1967 87 NI AS NOT_NAMED 1967-09-06 06:00:00 TS 25.6900 75.3057 main 0 0 O________OP___ jtwc_io IO081967 25.7000 75.3000 -1 25.7000 75.3000 TC 25 25.6699 75.3172 1 5 287
1967245N21090 1967 87 NI AS NOT_NAMED 1967-09-06 09:00:00 TS 25.7823 75.0442 main 0 0 P________PP___ IO081967 25.7924 75.0350 -1 25.7924 75.0350 TC 25 25.7621 75.0624 1 5 294
1967245N21090 1967 87 NI AS NOT_NAMED 1967-09-06 12:00:00 TS 25.8911 74.8088 main 0 0 O________OP___ jtwc_io IO081967 25.9000 74.8000 -1 25.9000 74.8000 TC 25 25.8732 74.8265 1 5 298
1967245N21090 1967 87 NI AS NOT_NAMED 1967-09-06 15:00:00 TS 25.9949 74.5999 main 0 0 P________PO___ IO081967 25.9924 74.5999 -1 25.9924 74.5999 TC 25 26.0000 74.6000 1 4 301
1967245N21090 1967 87 NI AS NOT_NAMED 1967-09-06 18:00:00 TS 26.1157 74.3901 main 0 0 O________OP___ jtwc_io IO081967 26.1000 74.4000 -1 26.1000 74.4000 TC 25 26.1393 74.3753 1 5 304
1967245N21090 1967 87 NI AS NOT_NAMED 1967-09-06 21:00:00 TS 26.2606 74.1575 main 0 0 P________PP___ IO081967 26.2401 74.1627 -1 26.2401 74.1627 TC 25 26.2879 74.1505 1 5 305
1967245N21090 1967 87 NI AS NOT_NAMED 1967-09-07 00:00:00 TS 26.4213 73.9127 main 0 0 O________OP___ jtwc_io IO081967 26.4000 73.9000 -1 26.4000 73.9000 TC 25 26.4425 73.9255 1 5 310
1967245N21090 1967 87 NI AS NOT_NAMED 1967-09-07 03:00:00 NR 26.6000 73.7000 main 0 __________O___ IO081967 -1 TC 26.6000 73.7000 1 5 314

About IBTrACS Database

This database is a web-friendly format of International Best Track Archive for Climate Stewardship (IBTrACS), a global best track data archive curated by NOAA dating back to 1842.

Updated: 2021-11-26